createdAt,value
2019-02-27T00:03:38.219Z,5.80
2019-02-27T00:08:44.367Z,6.77
2019-02-27T00:13:52.461Z,6.53
2019-02-27T00:18:58.894Z,6.77
2019-02-27T00:24:04.323Z,5.93
2019-02-27T00:29:09.173Z,5.47
2019-02-27T00:34:13.738Z,6.43
2019-02-27T00:39:18.629Z,5.67
2019-02-27T00:44:23.076Z,7.10
2019-02-27T00:49:29.868Z,6.45
2019-02-27T00:54:35.193Z,6.23
2019-02-27T00:59:40.182Z,6.47
2019-02-27T01:04:45.158Z,6.73
2019-02-27T01:09:50.647Z,6.97
2019-02-27T01:14:56.682Z,6.57
2019-02-27T01:20:01.659Z,6.30
2019-02-27T01:25:23.141Z,6.87
2019-02-27T01:30:28.383Z,6.47
2019-02-27T01:35:32.655Z,5.97
2019-02-27T01:40:37.034Z,6.13
2019-02-27T01:45:42.370Z,5.87
2019-02-27T01:50:47.774Z,6.50
2019-02-27T01:55:56.193Z,6.50
2019-02-27T02:00:59.326Z,6.17
2019-02-27T02:06:03.860Z,6.28
2019-02-27T02:11:08.346Z,5.50
2019-02-27T02:16:27.052Z,5.80
2019-02-27T02:21:59.705Z,6.13
2019-02-27T02:27:39.120Z,5.57
2019-02-27T02:33:18.347Z,5.83
2019-02-27T02:38:41.686Z,5.15
2019-02-27T02:44:23.349Z,7.07
2019-02-27T02:49:51.731Z,7.67
2019-02-27T02:55:12.014Z,5.83
2019-02-27T03:00:47.860Z,6.53
2019-02-27T03:06:36.123Z,5.93
2019-02-27T03:12:29.931Z,6.43
2019-02-27T03:18:33.360Z,6.47
2019-02-27T03:24:14.922Z,5.97
2019-02-27T03:29:58.041Z,5.97
2019-02-27T03:35:46.605Z,6.07
2019-02-27T03:41:22.807Z,5.93
2019-02-27T03:46:51.712Z,6.60
2019-02-27T03:52:36.548Z,6.33
2019-02-27T03:58:26.834Z,6.07
2019-02-27T04:03:55.618Z,6.70
2019-02-27T04:09:01.709Z,5.57
2019-02-27T04:14:32.358Z,5.90
2019-02-27T04:19:39.286Z,5.58
2019-02-27T04:24:43.071Z,5.77
2019-02-27T04:29:47.759Z,4.90
2019-02-27T04:34:52.745Z,5.67
2019-02-27T04:39:57.627Z,5.77
2019-02-27T04:45:02.931Z,5.27
2019-02-27T04:50:10.903Z,5.43
2019-02-27T04:55:15.657Z,6.50
2019-02-27T05:00:20.949Z,5.77
2019-02-27T05:05:26.166Z,6.60
2019-02-27T05:10:30.767Z,6.00
2019-02-27T05:15:38.925Z,5.70
2019-02-27T05:20:44.810Z,5.30
2019-02-27T05:25:48.945Z,6.27
2019-02-27T05:30:55.128Z,6.97
2019-02-27T05:36:00.484Z,6.53
2019-02-27T05:41:06.494Z,6.47
2019-02-27T05:46:11.810Z,5.03
2019-02-27T05:51:16.878Z,6.20
2019-02-27T05:56:21.488Z,5.73
2019-02-27T06:01:25.966Z,6.57
2019-02-27T06:06:31.936Z,6.43
2019-02-27T06:11:36.748Z,5.80
2019-02-27T06:16:41.547Z,6.43
2019-02-27T06:21:46.854Z,5.93
2019-02-27T06:26:51.936Z,6.30
2019-02-27T06:31:57.515Z,7.57
2019-02-27T06:37:01.899Z,6.78
2019-02-27T06:42:08.127Z,6.13
2019-02-27T06:47:16.094Z,6.90
2019-02-27T06:52:21.963Z,6.03
2019-02-27T06:57:29.155Z,4.77
2019-02-27T07:02:34.078Z,4.57
2019-02-27T07:07:38.830Z,3.60
2019-02-27T07:12:43.812Z,4.20
2019-02-27T07:17:48.488Z,3.80
2019-02-27T07:22:52.869Z,3.97
2019-02-27T07:28:00.013Z,4.78
2019-02-27T07:33:06.686Z,4.10
2019-02-27T07:38:10.650Z,4.67
2019-02-27T07:43:15.230Z,3.65
2019-02-27T07:48:19.876Z,4.67
2019-02-27T07:53:25.665Z,4.03
2019-02-27T07:58:33.786Z,3.60
2019-02-27T08:03:38.049Z,4.17
2019-02-27T08:08:42.565Z,4.20
2019-02-27T08:13:47.246Z,4.28
2019-02-27T08:18:51.918Z,3.92
2019-02-27T08:23:56.457Z,4.60
2019-02-27T08:29:01.919Z,4.50
2019-02-27T08:34:06.386Z,4.28
2019-02-27T08:39:10.708Z,4.25
2019-02-27T08:44:15.487Z,4.33
2019-02-27T08:49:24.157Z,4.83
2019-02-27T08:54:32.298Z,4.75
2019-02-27T09:04:50.860Z,4.05
2019-02-27T09:09:55.289Z,4.25
2019-02-27T09:15:00.039Z,3.80
2019-02-27T09:20:05.194Z,3.93
2019-02-27T09:25:13.535Z,3.62
2019-02-27T09:30:20.751Z,3.47
2019-02-27T09:35:26.445Z,3.77
2019-02-27T09:40:31.536Z,4.62
2019-02-27T09:45:36.030Z,3.97
2019-02-27T09:50:47.672Z,4.40
2019-02-27T09:55:53.430Z,3.95
2019-02-27T10:01:03.108Z,4.12
2019-02-27T10:06:08.789Z,4.67
2019-02-27T10:11:13.810Z,4.20
2019-02-27T10:16:18.900Z,5.10
2019-02-27T10:21:23.767Z,5.33
2019-02-27T10:26:29.128Z,5.20
2019-02-27T10:31:34.071Z,5.65
2019-02-27T10:36:39.357Z,5.63
2019-02-27T10:41:49.761Z,5.70
2019-02-27T10:46:52.552Z,5.00
2019-02-27T10:51:59.167Z,5.07
2019-02-27T10:57:05.989Z,5.87
2019-02-27T11:02:12.499Z,5.47
2019-02-27T11:07:17.901Z,5.33
2019-02-27T11:12:22.340Z,5.97
2019-02-27T11:17:26.865Z,5.27
2019-02-27T11:22:32.335Z,6.03
2019-02-27T11:27:38.974Z,5.92
2019-02-27T11:32:44.269Z,5.44
2019-02-27T11:37:48.935Z,5.75
2019-02-27T11:42:53.742Z,5.50
2019-02-27T11:47:58.724Z,6.15
2019-02-27T11:53:03.649Z,5.70
2019-02-27T11:58:09.325Z,4.87
2019-02-27T12:03:13.799Z,5.85
2019-02-27T12:08:18.842Z,5.17
2019-02-27T12:13:23.222Z,5.50
2019-02-27T12:18:27.941Z,5.43
2019-02-27T12:23:32.975Z,4.80
2019-02-27T12:28:37.610Z,4.60
2019-02-27T12:33:43.181Z,4.50
2019-02-27T12:38:47.549Z,4.17
2019-02-27T12:43:53.319Z,3.83
2019-02-27T12:48:58.938Z,3.85
2019-02-27T12:54:03.893Z,3.00
2019-02-27T12:59:09.062Z,2.92
2019-02-27T13:04:16.286Z,3.70
2019-02-27T13:09:26.128Z,3.12
2019-02-27T13:14:33.854Z,3.33
2019-02-27T13:19:45.065Z,4.10
2019-02-27T13:24:50.953Z,4.58
2019-02-27T13:30:05.495Z,3.33
2019-02-27T13:35:02.113Z,4.10
2019-02-27T13:40:12.565Z,3.70
2019-02-27T13:45:20.391Z,3.43
2019-02-27T13:50:26.792Z,3.27
2019-02-27T13:55:31.448Z,3.02
2019-02-27T14:00:36.665Z,3.15
2019-02-27T14:05:42.213Z,3.10
2019-02-27T14:10:47.290Z,2.85
2019-02-27T14:15:52.019Z,2.98
2019-02-27T14:20:59.006Z,2.85
2019-02-27T14:26:06.726Z,2.05
2019-02-27T14:31:10.887Z,2.40
2019-02-27T14:36:18.406Z,1.92
2019-02-27T14:41:25.030Z,2.23
2019-02-27T14:46:30.750Z,1.75
2019-02-27T14:51:41.178Z,2.30
2019-02-27T14:56:44.549Z,2.17
2019-02-27T15:01:49.454Z,3.25
2019-02-27T15:06:55.201Z,3.40
2019-02-27T15:11:59.749Z,4.90
2019-02-27T15:17:04.820Z,4.45
2019-02-27T15:22:10.176Z,4.58
2019-02-27T15:27:15.441Z,4.07
2019-02-27T15:32:26.833Z,4.45
2019-02-27T15:37:37.448Z,3.85
2019-02-27T15:42:42.735Z,4.28
2019-02-27T15:47:50.291Z,21.90
2019-02-27T15:52:54.837Z,29.27
2019-02-27T15:58:02.737Z,11.23
2019-02-27T16:03:10.676Z,4.37
2019-02-27T16:08:15.275Z,4.03
2019-02-27T16:13:22.635Z,4.47
2019-02-27T16:18:30.151Z,4.55
2019-02-27T16:23:37.478Z,3.25
2019-02-27T16:28:42.961Z,2.25
2019-02-27T16:33:48.103Z,2.70
2019-02-27T16:38:52.539Z,2.70
2019-02-27T16:43:57.385Z,5.87
2019-02-27T16:49:03.484Z,6.70
2019-02-27T16:54:09.120Z,3.90
2019-02-27T16:59:16.017Z,3.73
2019-02-27T17:04:20.613Z,3.00
2019-02-27T17:09:26.310Z,3.10
2019-02-27T17:14:31.709Z,3.30
2019-02-27T17:19:37.418Z,3.83
2019-02-27T17:24:43.039Z,2.98
2019-02-27T17:29:49.429Z,3.10
2019-02-27T17:34:54.854Z,3.03
2019-02-27T17:40:02.290Z,3.43
2019-02-27T17:45:10.045Z,3.00
2019-02-27T17:50:17.488Z,2.93
2019-02-27T17:55:22.685Z,2.83
2019-02-27T18:00:32.493Z,3.13
2019-02-27T18:05:37.628Z,3.63
2019-02-27T18:10:42.516Z,3.50
2019-02-27T18:15:47.430Z,3.47
2019-02-27T18:20:52.804Z,3.57
2019-02-27T18:25:59.955Z,3.47
2019-02-27T18:31:04.764Z,2.97
2019-02-27T18:36:09.778Z,3.77
2019-02-27T18:41:15.105Z,3.30
2019-02-27T18:46:24.808Z,3.93
2019-02-27T18:51:33.227Z,3.53
2019-02-27T18:56:40.281Z,3.33
2019-02-27T19:01:49.426Z,3.63
2019-02-27T19:06:54.086Z,4.23
2019-02-27T19:11:59.363Z,4.00
2019-02-27T19:17:04.650Z,3.23
2019-02-27T19:22:11.377Z,3.47
2019-02-27T19:27:18.353Z,4.20
2019-02-27T19:32:24.357Z,3.40
2019-02-27T19:37:30.411Z,3.20
2019-02-27T19:42:35.270Z,2.40
2019-02-27T19:47:41.485Z,2.87
2019-02-27T19:52:46.684Z,2.60
2019-02-27T19:58:07.786Z,2.30
2019-02-27T20:03:15.590Z,2.67
2019-02-27T20:08:29.720Z,2.40
2019-02-27T20:13:35.714Z,2.90
2019-02-27T20:18:43.473Z,3.17
2019-02-27T20:23:50.365Z,2.50
2019-02-27T20:28:55.787Z,3.37
2019-02-27T20:34:05.530Z,4.17
2019-02-27T20:39:10.608Z,4.13
2019-02-27T20:44:17.338Z,3.58
2019-02-27T20:49:23.038Z,4.00
2019-02-27T20:54:28.659Z,4.57
2019-02-27T20:59:33.620Z,4.23
2019-02-27T21:04:39.155Z,3.70
2019-02-27T21:09:45.189Z,3.93
2019-02-27T21:14:51.410Z,4.67
2019-02-27T21:19:55.829Z,3.90
2019-02-27T21:25:01.490Z,3.83
2019-02-27T21:30:08.551Z,3.63
2019-02-27T21:35:13.743Z,3.83
2019-02-27T21:40:18.481Z,3.40
2019-02-27T21:45:22.908Z,3.77
2019-02-27T21:50:28.189Z,4.53
2019-02-27T21:55:32.994Z,4.33
2019-02-27T22:00:37.287Z,4.83
2019-02-27T22:05:43.101Z,4.30
2019-02-27T22:10:53.148Z,4.23
2019-02-27T22:15:56.841Z,4.53
2019-02-27T22:21:01.751Z,5.63
2019-02-27T22:26:06.465Z,4.90
2019-02-27T22:31:13.618Z,4.83
2019-02-27T22:36:18.821Z,5.20
2019-02-27T22:41:25.894Z,3.77
2019-02-27T22:46:30.665Z,4.43
2019-02-27T22:51:35.684Z,4.47
2019-02-27T22:56:40.572Z,4.07
2019-02-27T23:01:51.459Z,4.80
2019-02-27T23:06:56.726Z,4.60
2019-02-27T23:12:02.056Z,4.40
2019-02-27T23:17:06.921Z,4.30
2019-02-27T23:22:12.050Z,4.40
2019-02-27T23:27:16.773Z,4.13
2019-02-27T23:32:21.217Z,4.13
2019-02-27T23:37:29.409Z,4.97
2019-02-27T23:42:32.560Z,5.60
2019-02-27T23:47:37.661Z,5.15
2019-02-27T23:52:42.237Z,5.30
2019-02-27T23:57:47.204Z,5.67
